createdAt,value
2018-04-11T00:00:30.528Z,67.47
2018-04-11T00:01:30.518Z,67.47
2018-04-11T00:02:30.501Z,67.25
2018-04-11T00:03:30.490Z,67.38
2018-04-11T00:04:30.473Z,67.19
2018-04-11T00:05:30.461Z,67.38
2018-04-11T00:06:30.449Z,67.00
2018-04-11T00:07:30.434Z,67.09
2018-04-11T00:08:30.422Z,66.49
2018-04-11T00:09:30.409Z,66.90
2018-04-11T00:10:30.399Z,66.96
2018-04-11T00:11:30.382Z,67.44
2018-04-11T00:12:30.377Z,67.63
2018-04-11T00:13:30.370Z,67.72
2018-04-11T00:14:30.364Z,67.82
2018-04-11T00:15:30.339Z,67.53
2018-04-11T00:16:30.326Z,67.44
2018-04-11T00:17:30.309Z,67.34
2018-04-11T00:18:30.293Z,67.72
2018-04-11T00:19:30.285Z,67.82
2018-04-11T00:20:30.277Z,67.72
2018-04-11T00:21:30.253Z,67.53
2018-04-11T00:22:30.265Z,67.63
2018-04-11T00:23:30.237Z,68.10
2018-04-11T00:24:30.225Z,68.19
2018-04-11T00:25:30.218Z,68.39
2018-04-11T00:26:30.215Z,67.63
2018-04-11T00:27:30.183Z,67.72
2018-04-11T00:28:30.166Z,67.91
2018-04-11T00:29:30.156Z,67.72
2018-04-11T00:30:30.140Z,67.91
2018-04-11T00:31:30.132Z,67.82
2018-04-11T00:32:30.121Z,67.72
2018-04-11T00:33:30.102Z,67.72
2018-04-11T00:34:30.089Z,67.72
2018-04-11T00:35:30.076Z,67.63
2018-04-11T00:36:30.063Z,67.63
2018-04-11T00:37:30.051Z,67.72
2018-04-11T00:38:30.041Z,68.01
2018-04-11T00:39:30.021Z,67.63
2018-04-11T00:40:30.013Z,67.34
2018-04-11T00:41:29.997Z,67.63
2018-04-11T00:42:29.989Z,67.82
2018-04-11T00:43:29.965Z,67.82
2018-04-11T00:44:29.958Z,67.44
2018-04-11T00:45:29.942Z,67.91
2018-04-11T00:46:29.935Z,67.82
2018-04-11T00:47:29.921Z,67.82
2018-04-11T00:48:29.903Z,67.63
2018-04-11T00:49:29.892Z,67.34
2018-04-11T00:50:29.885Z,67.53
2018-04-11T00:51:29.871Z,67.72
2018-04-11T00:52:29.860Z,68.10
2018-04-11T00:53:29.846Z,68.01
2018-04-11T00:54:29.826Z,68.01
2018-04-11T00:55:29.816Z,68.01
2018-04-11T00:56:29.804Z,67.63
2018-04-11T00:57:29.796Z,67.82
2018-04-11T00:58:29.782Z,67.63
2018-04-11T00:59:29.764Z,68.29
2018-04-11T01:00:29.751Z,67.53
2018-04-11T01:01:29.738Z,68.01
2018-04-11T01:02:29.728Z,67.72
2018-04-11T01:03:29.712Z,67.63
2018-04-11T01:04:29.703Z,67.82
2018-04-11T01:05:29.685Z,67.63
2018-04-11T01:06:29.674Z,67.15
2018-04-11T01:07:29.663Z,67.63
2018-04-11T01:08:29.645Z,67.34
2018-04-11T01:09:29.629Z,67.25
2018-04-11T01:10:29.620Z,66.58
2018-04-11T01:11:29.605Z,66.67
2018-04-11T01:12:29.591Z,66.20
2018-04-11T01:13:29.583Z,65.79
2018-04-11T01:14:29.579Z,65.63
2018-04-11T01:15:29.554Z,65.22
2018-04-11T01:16:29.542Z,65.98
2018-04-11T01:17:29.534Z,66.08
2018-04-11T01:18:29.522Z,66.55
2018-04-11T01:19:29.500Z,66.55
2018-04-11T01:20:29.486Z,66.36
2018-04-11T01:21:29.477Z,66.55
2018-04-11T01:22:29.465Z,66.74
2018-04-11T01:23:29.460Z,66.55
2018-04-11T01:24:29.438Z,66.74
2018-04-11T01:25:29.432Z,66.36
2018-04-11T01:26:29.413Z,66.55
2018-04-11T01:27:29.398Z,66.55
2018-04-11T01:28:29.385Z,67.02
2018-04-11T01:29:29.376Z,66.46
2018-04-11T01:30:29.357Z,66.46
2018-04-11T01:31:29.345Z,66.64
2018-04-11T01:32:29.333Z,66.36
2018-04-11T01:33:29.319Z,66.74
2018-04-11T01:34:29.309Z,66.08
2018-04-11T01:35:29.293Z,65.79
2018-04-11T01:36:29.281Z,65.22
2018-04-11T01:37:29.265Z,65.12
2018-04-11T01:38:29.256Z,64.84
2018-04-11T01:39:29.240Z,64.84
2018-04-11T01:40:29.226Z,64.17
2018-04-11T01:41:29.210Z,64.27
2018-04-11T01:42:29.203Z,64.27
2018-04-11T01:43:29.192Z,64.27
2018-04-11T01:44:29.171Z,63.89
2018-04-11T01:45:29.161Z,64.27
2018-04-11T01:46:29.147Z,64.27
2018-04-11T01:47:29.133Z,63.60
2018-04-11T01:48:29.119Z,63.51
2018-04-11T01:49:29.103Z,63.42
2018-04-11T01:50:29.093Z,63.60
2018-04-11T01:51:29.078Z,63.60
2018-04-11T01:52:29.067Z,63.89
2018-04-11T01:53:29.055Z,63.32
2018-04-11T01:54:29.042Z,64.65
2018-04-11T01:55:29.030Z,64.56
2018-04-11T01:56:29.014Z,64.46
2018-04-11T01:57:29.002Z,64.37
2018-04-11T01:58:28.982Z,64.37
2018-04-11T01:59:28.974Z,63.79
2018-04-11T02:00:28.966Z,63.51
2018-04-11T02:01:28.948Z,62.94
2018-04-11T02:02:28.935Z,62.94
2018-04-11T02:03:28.924Z,62.75
2018-04-11T02:04:28.909Z,63.23
2018-04-11T02:05:28.892Z,63.23
2018-04-11T02:06:28.884Z,63.42
2018-04-11T02:07:28.868Z,63.42
2018-04-11T02:08:28.851Z,63.79
2018-04-11T02:09:28.843Z,64.27
2018-04-11T02:10:28.830Z,63.89
2018-04-11T02:11:28.811Z,64.37
2018-04-11T02:12:28.797Z,63.79
2018-04-11T02:13:28.790Z,63.60
2018-04-11T02:14:28.777Z,63.42
2018-04-11T02:15:28.765Z,63.79
2018-04-11T02:16:28.746Z,63.51
2018-04-11T02:17:28.736Z,63.51
2018-04-11T02:18:28.717Z,63.32
2018-04-11T02:19:28.703Z,63.23
2018-04-11T02:20:28.702Z,62.66
2018-04-11T02:21:28.685Z,62.75
2018-04-11T02:22:28.663Z,62.85
2018-04-11T02:23:28.656Z,63.23
2018-04-11T02:24:28.637Z,62.46
2018-04-11T02:25:28.645Z,62.56
2018-04-11T02:26:28.613Z,62.05
2018-04-11T02:27:28.600Z,61.99
2018-04-11T02:28:28.584Z,62.34
2018-04-11T02:29:28.570Z,62.27
2018-04-11T02:30:28.559Z,62.56
2018-04-11T02:31:28.545Z,62.94
2018-04-11T02:32:28.540Z,63.20
2018-04-11T02:33:28.521Z,63.39
2018-04-11T02:34:28.502Z,63.48
2018-04-11T02:35:28.486Z,63.29
2018-04-11T02:36:28.473Z,62.82
2018-04-11T02:37:28.464Z,62.72
2018-04-11T02:38:28.457Z,63.04
2018-04-11T02:39:28.429Z,63.10
2018-04-11T02:40:28.419Z,62.34
2018-04-11T02:41:28.407Z,62.85
2018-04-11T02:42:28.399Z,61.99
2018-04-11T02:43:28.385Z,62.24
2018-04-11T02:44:28.375Z,62.34
2018-04-11T02:45:28.360Z,62.82
2018-04-11T02:46:28.341Z,63.01
2018-04-11T02:47:28.329Z,63.42
2018-04-11T02:48:28.316Z,63.39
2018-04-11T02:49:28.305Z,63.20
2018-04-11T02:50:28.294Z,63.20
2018-04-11T02:51:28.269Z,62.91
2018-04-11T02:52:28.262Z,63.20
2018-04-11T02:53:28.252Z,62.72
2018-04-11T02:54:28.233Z,63.48
2018-04-11T02:55:28.223Z,63.29
2018-04-11T02:56:28.204Z,63.39
2018-04-11T02:57:28.191Z,63.01
2018-04-11T02:58:28.185Z,62.43
2018-04-11T02:59:28.161Z,62.43
2018-04-11T03:00:28.154Z,62.24
2018-04-11T03:01:28.135Z,61.77
2018-04-11T03:02:28.120Z,61.58
2018-04-11T03:03:28.111Z,61.77
2018-04-11T03:04:28.096Z,61.58
2018-04-11T03:05:28.082Z,61.96
2018-04-11T03:06:28.071Z,62.05
2018-04-11T03:07:28.050Z,61.87
2018-04-11T03:08:28.036Z,62.34
2018-04-11T03:09:28.024Z,62.53
2018-04-11T03:10:28.014Z,62.43
2018-04-11T03:11:27.996Z,63.48
2018-04-11T03:12:27.985Z,63.29
2018-04-11T03:13:27.973Z,63.39
2018-04-11T03:14:27.960Z,62.72
2018-04-11T03:15:27.944Z,62.15
2018-04-11T03:16:27.930Z,62.43
2018-04-11T03:17:27.918Z,61.96
2018-04-11T03:18:27.903Z,62.43
2018-04-11T03:19:27.885Z,61.96
2018-04-11T03:20:27.879Z,61.58
2018-04-11T03:21:27.870Z,61.68
2018-04-11T03:22:27.849Z,61.39
2018-04-11T03:23:27.835Z,61.87
2018-04-11T03:24:27.820Z,60.82
2018-04-11T03:25:27.804Z,60.73
2018-04-11T03:26:27.791Z,60.35
2018-04-11T03:27:27.780Z,60.44
2018-04-11T03:28:27.767Z,60.92
2018-04-11T03:29:27.761Z,60.92
2018-04-11T03:30:27.736Z,60.92
2018-04-11T03:31:27.721Z,60.35
2018-04-11T03:32:27.712Z,60.92
2018-04-11T03:33:27.734Z,60.82
2018-04-11T03:34:27.684Z,60.63
2018-04-11T03:35:27.672Z,61.01
2018-04-11T03:36:27.656Z,60.82
2018-04-11T03:37:27.640Z,60.53
2018-04-11T03:38:27.627Z,60.63
2018-04-11T03:39:27.617Z,60.53
2018-04-11T03:40:27.601Z,60.73
2018-04-11T03:41:27.581Z,60.25
2018-04-11T03:42:27.569Z,60.73
2018-04-11T03:43:27.559Z,60.44
2018-04-11T03:44:27.544Z,60.53
2018-04-11T03:45:27.529Z,60.63
2018-04-11T03:46:27.518Z,60.44
2018-04-11T03:47:27.519Z,60.35
2018-04-11T03:48:27.490Z,60.92
2018-04-11T03:49:27.475Z,60.16
2018-04-11T03:50:27.457Z,59.97
2018-04-11T03:51:27.446Z,59.68
2018-04-11T03:52:27.438Z,59.30
2018-04-11T03:53:27.422Z,59.21
2018-04-11T03:54:27.404Z,59.02
2018-04-11T03:55:27.387Z,58.73
2018-04-11T03:56:27.373Z,58.64
2018-04-11T03:57:27.363Z,58.83
2018-04-11T03:58:27.347Z,59.40
2018-04-11T03:59:27.337Z,59.21
2018-04-11T04:00:27.325Z,59.30
2018-04-11T04:01:27.311Z,59.30
2018-04-11T04:02:27.293Z,59.68
2018-04-11T04:03:27.275Z,59.97
2018-04-11T04:04:27.272Z,59.59
2018-04-11T04:05:27.256Z,59.40
2018-04-11T04:06:27.239Z,59.88
2018-04-11T04:07:27.223Z,59.97
2018-04-11T04:08:27.207Z,59.88
2018-04-11T04:09:27.199Z,59.59
2018-04-11T04:10:27.187Z,59.40
2018-04-11T04:11:27.174Z,59.59
2018-04-11T04:12:27.155Z,59.68
2018-04-11T04:13:27.141Z,59.68
2018-04-11T04:14:27.133Z,59.40
2018-04-11T04:15:27.114Z,59.97
2018-04-11T04:16:27.098Z,59.97
2018-04-11T04:17:27.091Z,59.30
2018-04-11T04:18:27.078Z,59.59
2018-04-11T04:19:27.058Z,59.40
2018-04-11T04:20:27.046Z,59.59
2018-04-11T04:21:27.036Z,59.78
2018-04-11T04:22:27.016Z,59.30
2018-04-11T04:23:27.015Z,59.68
2018-04-11T04:24:26.993Z,59.30
2018-04-11T04:25:26.976Z,59.68
2018-04-11T04:26:26.967Z,59.21
2018-04-11T04:27:26.947Z,58.83
2018-04-11T04:28:26.935Z,58.92
2018-04-11T04:29:26.921Z,59.02
2018-04-11T04:30:26.914Z,59.11
2018-04-11T04:31:26.890Z,59.21
2018-04-11T04:32:26.880Z,58.45
2018-04-11T04:33:26.863Z,58.83
2018-04-11T04:34:26.851Z,58.64
2018-04-11T04:35:26.839Z,58.45
2018-04-11T04:36:26.824Z,59.02
2018-04-11T04:37:26.803Z,58.92
2018-04-11T04:38:26.794Z,58.26
2018-04-11T04:39:26.780Z,57.79
2018-04-11T04:40:26.762Z,57.03
2018-04-11T04:41:26.752Z,57.21
2018-04-11T04:42:26.737Z,57.31
2018-04-11T04:43:26.731Z,57.50
2018-04-11T04:44:26.716Z,57.03
2018-04-11T04:45:26.701Z,57.12
2018-04-11T04:46:26.682Z,57.21
2018-04-11T04:47:26.661Z,56.84
2018-04-11T04:48:26.670Z,56.17
2018-04-11T04:49:26.643Z,56.46
2018-04-11T04:50:26.622Z,56.65
2018-04-11T04:51:26.612Z,56.65
2018-04-11T04:52:26.600Z,57.12
2018-04-11T04:53:26.586Z,57.31
2018-04-11T04:54:26.568Z,56.55
2018-04-11T04:55:26.561Z,56.65
2018-04-11T04:56:26.550Z,56.65
2018-04-11T04:57:26.524Z,56.65
2018-04-11T04:58:26.517Z,56.84
2018-04-11T04:59:26.501Z,56.81
2018-04-11T05:00:26.483Z,56.93
2018-04-11T05:01:26.475Z,57.95
2018-04-11T05:02:26.470Z,58.70
2018-04-11T05:03:26.443Z,58.70
2018-04-11T05:04:26.427Z,58.70
2018-04-11T05:05:26.423Z,58.17
2018-04-11T05:06:26.401Z,58.33
2018-04-11T05:07:26.388Z,57.88
2018-04-11T05:08:26.382Z,56.93
2018-04-11T05:09:26.360Z,58.64
2018-04-11T05:10:26.352Z,57.88
2018-04-11T05:11:26.340Z,57.31
2018-04-11T05:12:26.325Z,57.31
2018-04-11T05:13:26.315Z,57.31
2018-04-11T05:14:26.298Z,57.50
2018-04-11T05:15:26.282Z,57.03
2018-04-11T05:16:26.263Z,57.31
2018-04-11T05:17:26.252Z,56.93
2018-04-11T05:18:26.231Z,57.12
2018-04-11T05:19:26.221Z,56.93
2018-04-11T05:20:26.209Z,57.03
2018-04-11T05:21:26.196Z,57.31
2018-04-11T05:22:26.184Z,56.55
2018-04-11T05:23:26.168Z,56.93
2018-04-11T05:24:26.158Z,57.31
2018-04-11T05:25:26.134Z,57.31
2018-04-11T05:26:26.130Z,57.31
2018-04-11T05:27:26.110Z,57.79
2018-04-11T05:28:26.096Z,58.36
2018-04-11T05:29:26.084Z,58.54
2018-04-11T05:30:26.067Z,58.07
2018-04-11T05:31:26.057Z,57.88
2018-04-11T05:32:26.043Z,58.17
2018-04-11T05:33:26.025Z,58.26
2018-04-11T05:34:26.011Z,58.36
2018-04-11T05:35:26.001Z,58.17
2018-04-11T05:36:25.988Z,58.73
2018-04-11T05:37:25.971Z,57.79
2018-04-11T05:38:25.958Z,57.40
2018-04-11T05:39:25.942Z,56.93
2018-04-11T05:40:25.932Z,57.12
2018-04-11T05:41:25.916Z,57.21
2018-04-11T05:42:25.907Z,57.03
2018-04-11T05:43:25.888Z,58.07
2018-04-11T05:44:25.873Z,58.17
2018-04-11T05:45:25.863Z,58.07
2018-04-11T05:46:25.850Z,57.31
2018-04-11T05:47:25.842Z,57.12
2018-04-11T05:48:25.822Z,56.93
2018-04-11T05:49:25.807Z,57.21
2018-04-11T05:50:25.792Z,57.31
2018-04-11T05:51:25.780Z,57.03
2018-04-11T05:52:25.798Z,56.46
2018-04-11T05:53:25.785Z,56.17
2018-04-11T05:54:25.738Z,56.55
2018-04-11T05:55:25.723Z,56.27
2018-04-11T05:56:25.709Z,56.74
2018-04-11T05:57:25.693Z,57.03
2018-04-11T05:58:25.679Z,57.31
2018-04-11T05:59:25.668Z,57.40
2018-04-11T06:00:25.648Z,57.50
2018-04-11T06:01:25.643Z,57.21
2018-04-11T06:02:25.630Z,56.84
2018-04-11T06:03:25.613Z,56.36
2018-04-11T06:04:25.595Z,56.36
2018-04-11T06:05:25.583Z,56.46
2018-04-11T06:06:25.578Z,55.98
2018-04-11T06:07:25.553Z,55.22
2018-04-11T06:08:25.543Z,55.04
2018-04-11T06:09:25.541Z,55.70
2018-04-11T06:10:25.515Z,54.37
2018-04-11T06:11:25.503Z,54.94
2018-04-11T06:12:25.489Z,55.41
2018-04-11T06:13:25.472Z,55.51
2018-04-11T06:14:25.457Z,55.22
2018-04-11T06:15:25.439Z,56.17
2018-04-11T06:16:25.430Z,55.98
2018-04-11T06:17:25.415Z,56.27
2018-04-11T06:18:25.405Z,55.60
2018-04-11T06:19:25.384Z,55.79
2018-04-11T06:20:25.372Z,55.32
2018-04-11T06:21:25.360Z,55.32
2018-04-11T06:22:25.348Z,54.08
2018-04-11T06:23:25.336Z,53.99
2018-04-11T06:24:25.322Z,54.18
2018-04-11T06:25:25.302Z,54.66
2018-04-11T06:26:25.293Z,54.08
2018-04-11T06:27:25.275Z,54.18
2018-04-11T06:28:25.266Z,54.27
2018-04-11T06:29:25.250Z,54.56
2018-04-11T06:30:25.237Z,54.85
2018-04-11T06:31:25.225Z,54.75
2018-04-11T06:32:25.209Z,54.97
2018-04-11T06:33:25.201Z,54.49
2018-04-11T06:34:25.192Z,54.39
2018-04-11T06:35:25.156Z,54.97
2018-04-11T06:36:25.156Z,55.44
2018-04-11T06:37:25.138Z,56.20
2018-04-11T06:38:25.122Z,55.94
2018-04-11T06:39:25.114Z,56.01
2018-04-11T06:40:25.098Z,56.32
2018-04-11T06:41:25.086Z,56.32
2018-04-11T06:42:25.070Z,55.28
2018-04-11T06:43:25.072Z,55.09
2018-04-11T06:44:25.038Z,54.61
2018-04-11T06:45:25.031Z,55.09
2018-04-11T06:46:25.014Z,54.14
2018-04-11T06:47:25.003Z,54.43
2018-04-11T06:48:24.988Z,54.71
2018-04-11T06:49:24.972Z,54.43
2018-04-11T06:50:24.962Z,54.90
2018-04-11T06:51:24.945Z,53.95
2018-04-11T06:52:24.931Z,54.05
2018-04-11T06:53:24.924Z,54.80
2018-04-11T06:54:24.908Z,54.99
2018-04-11T06:55:24.893Z,53.78
2018-04-11T06:56:24.886Z,53.57
2018-04-11T06:57:24.871Z,53.50
2018-04-11T06:58:24.856Z,54.07
2018-04-11T06:59:24.861Z,54.26
2018-04-11T07:00:24.826Z,54.55
2018-04-11T07:01:24.812Z,55.02
2018-04-11T07:02:24.801Z,54.64
2018-04-11T07:03:24.788Z,54.36
2018-04-11T07:04:24.778Z,53.22
2018-04-11T07:05:24.762Z,51.51
2018-04-11T07:06:24.745Z,50.96
2018-04-11T07:07:24.741Z,50.37
2018-04-11T07:08:24.727Z,50.48
2018-04-11T07:09:24.714Z,51.06
2018-04-11T07:10:24.696Z,51.25
2018-04-11T07:11:24.682Z,51.25
2018-04-11T07:12:24.675Z,51.53
2018-04-11T07:13:24.661Z,51.75
2018-04-11T07:14:24.644Z,52.32
2018-04-11T07:15:24.628Z,52.51
2018-04-11T07:16:24.619Z,50.89
2018-04-11T07:17:24.608Z,49.18
2018-04-11T07:18:24.596Z,49.46
2018-04-11T07:19:24.581Z,49.65
2018-04-11T07:20:24.562Z,50.04
2018-04-11T07:21:24.552Z,49.94
2018-04-11T07:22:24.545Z,49.94
2018-04-11T07:23:24.523Z,49.49
2018-04-11T07:24:24.517Z,49.40
2018-04-11T07:25:24.499Z,49.40
2018-04-11T07:26:24.485Z,51.20
2018-04-11T07:27:24.484Z,50.73
2018-04-11T07:28:24.464Z,50.54
2018-04-11T07:29:24.452Z,50.06
2018-04-11T07:30:24.440Z,51.30
2018-04-11T07:31:24.439Z,50.18
2018-04-11T07:32:24.414Z,51.04
2018-04-11T07:33:24.405Z,50.75
2018-04-11T07:34:24.393Z,49.32
2018-04-11T07:35:24.387Z,47.23
2018-04-11T07:36:24.366Z,45.73
2018-04-11T07:37:24.369Z,46.11
2018-04-11T07:38:24.341Z,46.30
2018-04-11T07:39:24.331Z,42.30
2018-04-11T07:40:24.355Z,41.44
2018-04-11T07:41:24.305Z,43.73
2018-04-11T07:42:24.292Z,44.30
2018-04-11T07:43:24.283Z,42.68
2018-04-11T07:44:24.273Z,43.35
2018-04-11T07:45:24.261Z,43.54
2018-04-11T07:46:24.256Z,42.70
2018-04-11T07:47:24.234Z,42.89
2018-04-11T07:48:24.222Z,43.08
2018-04-11T07:49:24.208Z,43.27
2018-04-11T07:50:24.202Z,44.32
2018-04-11T07:51:24.184Z,44.13
2018-04-11T07:52:24.171Z,41.65
2018-04-11T07:53:24.168Z,41.36
2018-04-11T07:54:24.152Z,44.23
2018-04-11T07:55:24.139Z,44.32
2018-04-11T07:56:24.128Z,43.65
2018-04-11T07:57:24.123Z,41.84
2018-04-11T07:58:24.105Z,41.27
2018-04-11T07:59:24.101Z,42.60
2018-04-11T08:00:24.085Z,44.42
2018-04-11T08:01:24.072Z,45.18
2018-04-11T08:02:24.061Z,46.13
2018-04-11T08:03:24.098Z,46.11
2018-04-11T08:04:24.039Z,46.58
2018-04-11T08:05:24.028Z,46.49
2018-04-11T08:06:24.012Z,46.97
2018-04-11T08:07:24.011Z,46.39
2018-04-11T08:08:23.994Z,46.58
2018-04-11T08:09:24.002Z,46.39
2018-04-11T08:10:23.967Z,46.11
2018-04-11T08:11:23.960Z,45.54
2018-04-11T08:12:23.947Z,45.25
2018-04-11T08:13:23.938Z,46.01
2018-04-11T08:14:23.926Z,46.51
2018-04-11T08:15:23.918Z,46.11
2018-04-11T08:16:23.901Z,45.94
2018-04-11T08:17:23.892Z,46.51
2018-04-11T08:18:23.901Z,46.32
2018-04-11T08:19:23.879Z,46.20
2018-04-11T08:20:23.862Z,46.23
2018-04-11T08:21:23.848Z,45.08
2018-04-11T08:22:23.832Z,45.37
2018-04-11T08:23:23.824Z,46.32
2018-04-11T08:24:23.817Z,46.01
2018-04-11T08:25:23.797Z,45.44
2018-04-11T08:26:23.792Z,46.61
2018-04-11T08:27:23.777Z,46.23
2018-04-11T08:28:23.768Z,46.32
2018-04-11T08:29:23.765Z,45.84
2018-04-11T08:30:23.752Z,45.75
2018-04-11T08:31:23.736Z,44.99
2018-04-11T08:32:23.720Z,44.23
2018-04-11T08:33:23.711Z,43.75
2018-04-11T08:34:23.696Z,43.65
2018-04-11T08:35:23.690Z,43.75
2018-04-11T08:36:23.675Z,43.75
2018-04-11T08:37:23.666Z,43.75
2018-04-11T08:38:23.660Z,43.58
2018-04-11T08:39:23.643Z,43.68
2018-04-11T08:40:23.635Z,43.75
2018-04-11T08:41:23.619Z,43.20
2018-04-11T08:42:23.608Z,42.70
2018-04-11T08:43:23.620Z,42.51
2018-04-11T08:44:23.589Z,43.08
2018-04-11T08:45:23.574Z,43.18
2018-04-11T08:46:23.567Z,43.65
2018-04-11T08:47:23.588Z,44.42
2018-04-11T08:48:23.545Z,45.08
2018-04-11T08:49:23.560Z,44.70
2018-04-11T08:50:23.520Z,44.13
2018-04-11T08:51:23.509Z,43.96
2018-04-11T08:52:23.500Z,44.25
2018-04-11T08:53:23.489Z,43.29
2018-04-11T08:54:23.479Z,42.44
2018-04-11T08:55:23.464Z,42.15
2018-04-11T08:56:23.457Z,43.20
2018-04-11T08:57:23.444Z,42.72
2018-04-11T08:58:23.432Z,41.39
2018-04-11T08:59:23.425Z,41.48
2018-04-11T09:00:23.410Z,41.48
2018-04-11T09:01:23.408Z,39.78
2018-04-11T09:02:23.394Z,40.05
2018-04-11T09:03:23.378Z,40.24
2018-04-11T09:04:23.370Z,40.83
2018-04-11T09:05:23.419Z,41.41
2018-04-11T09:06:23.349Z,40.55
2018-04-11T09:07:23.337Z,40.17
2018-04-11T09:08:23.327Z,39.88
2018-04-11T09:09:23.315Z,41.41
2018-04-11T09:10:23.305Z,40.28
2018-04-11T09:11:23.294Z,39.61
2018-04-11T09:12:23.287Z,39.81
2018-04-11T09:13:23.277Z,40.00
2018-04-11T09:14:23.259Z,41.52
2018-04-11T09:15:23.249Z,39.81
2018-04-11T09:16:23.239Z,39.23
2018-04-11T09:17:23.229Z,39.14
2018-04-11T09:18:23.223Z,37.90
2018-04-11T09:19:23.209Z,38.78
2018-04-11T09:20:23.194Z,40.20
2018-04-11T09:21:23.184Z,39.92
2018-04-11T09:22:23.176Z,39.64
2018-04-11T09:23:23.168Z,37.24
2018-04-11T09:24:23.163Z,33.14
2018-04-11T09:25:23.146Z,32.95
2018-04-11T09:26:23.139Z,32.86
2018-04-11T09:27:23.125Z,31.31
2018-04-11T09:28:23.122Z,31.80
2018-04-11T09:29:23.110Z,32.07
2018-04-11T09:30:23.095Z,31.50
2018-04-11T09:31:23.083Z,31.40
2018-04-11T09:32:23.074Z,31.21
2018-04-11T09:33:23.062Z,31.90
2018-04-11T09:34:23.054Z,31.51
2018-04-11T09:35:23.038Z,32.18
2018-04-11T09:36:23.034Z,32.86
2018-04-11T09:37:23.024Z,31.61
2018-04-11T09:38:23.018Z,30.94
2018-04-11T09:39:23.002Z,30.29
2018-04-11T09:40:22.988Z,30.48
2018-04-11T09:41:22.989Z,30.58
2018-04-11T09:42:22.975Z,32.20
2018-04-11T09:43:22.965Z,31.82
2018-04-11T09:44:22.955Z,30.67
2018-04-11T09:45:22.946Z,31.92
2018-04-11T09:46:22.928Z,30.67
2018-04-11T09:47:22.923Z,29.24
2018-04-11T09:48:22.914Z,31.43
2018-04-11T09:49:22.900Z,33.07
2018-04-11T09:50:22.892Z,31.43
2018-04-11T09:51:22.886Z,31.43
2018-04-11T09:52:22.880Z,32.20
2018-04-11T09:53:22.862Z,32.12
2018-04-11T09:54:22.857Z,32.89
2018-04-11T09:55:22.851Z,33.27
2018-04-11T09:56:22.840Z,33.17
2018-04-11T09:57:22.835Z,30.40
2018-04-11T09:58:22.815Z,30.88
2018-04-11T09:59:22.812Z,32.31
2018-04-11T10:00:22.816Z,31.93
2018-04-11T10:01:22.792Z,31.76
2018-04-11T10:02:22.776Z,30.59
2018-04-11T10:03:22.766Z,29.63
2018-04-11T10:04:22.758Z,29.06
2018-04-11T10:05:22.748Z,31.93
2018-04-11T10:06:22.742Z,31.35
2018-04-11T10:07:22.732Z,31.64
2018-04-11T10:08:22.721Z,30.21
2018-04-11T10:09:22.718Z,30.40
2018-04-11T10:10:22.704Z,31.05
2018-04-11T10:11:22.693Z,31.15
2018-04-11T10:12:22.683Z,32.01
2018-04-11T10:13:22.671Z,31.92
2018-04-11T10:14:22.669Z,33.94
2018-04-11T10:15:22.653Z,33.84
2018-04-11T10:16:22.645Z,32.21
2018-04-11T10:17:22.634Z,32.31
2018-04-11T10:18:22.624Z,31.63
2018-04-11T10:19:22.616Z,32.12
2018-04-11T10:20:22.606Z,32.98
2018-04-11T10:21:22.600Z,33.17
2018-04-11T10:22:22.589Z,32.03
2018-04-11T10:23:22.580Z,31.24
2018-04-11T10:24:22.573Z,30.48
2018-04-11T10:25:22.562Z,30.98
2018-04-11T10:26:22.561Z,31.45
2018-04-11T10:27:22.544Z,31.35
2018-04-11T10:28:22.530Z,32.21
2018-04-11T10:29:22.526Z,33.17
2018-04-11T10:30:22.514Z,31.84
2018-04-11T10:31:22.512Z,31.07
2018-04-11T10:32:22.496Z,30.49
2018-04-11T10:33:22.484Z,31.07
2018-04-11T10:34:22.479Z,31.07
2018-04-11T10:35:22.466Z,30.98
2018-04-11T10:36:22.459Z,31.45
2018-04-11T10:37:22.449Z,31.84
2018-04-11T10:38:22.443Z,32.33
2018-04-11T10:39:22.436Z,31.95
2018-04-11T10:40:22.417Z,33.09
2018-04-11T10:41:22.413Z,33.28
2018-04-11T10:42:22.406Z,31.38
2018-04-11T10:43:22.392Z,31.77
2018-04-11T10:44:22.383Z,31.77
2018-04-11T10:45:22.371Z,30.62
2018-04-11T10:46:22.370Z,30.72
2018-04-11T10:47:22.357Z,29.28
2018-04-11T10:48:22.347Z,29.27
2018-04-11T10:49:22.340Z,30.22
2018-04-11T10:50:22.329Z,31.37
2018-04-11T10:51:22.321Z,31.87
2018-04-11T10:52:22.319Z,32.15
2018-04-11T10:53:22.306Z,31.67
2018-04-11T10:54:22.298Z,31.67
2018-04-11T10:55:22.286Z,30.33
2018-04-11T10:56:22.277Z,30.24
2018-04-11T10:57:22.265Z,30.81
2018-04-11T10:58:22.257Z,31.20
2018-04-11T10:59:22.248Z,31.38
2018-04-11T11:00:22.239Z,30.72
2018-04-11T11:01:22.230Z,29.47
2018-04-11T11:02:22.223Z,32.06
2018-04-11T11:03:22.208Z,32.44
2018-04-11T11:04:22.202Z,33.32
2018-04-11T11:05:22.194Z,31.79
2018-04-11T11:06:22.188Z,32.84
2018-04-11T11:07:22.169Z,33.32
2018-04-11T11:08:22.167Z,32.84
2018-04-11T11:09:22.163Z,31.90
2018-04-11T11:10:22.157Z,30.75
2018-04-11T11:11:22.141Z,32.18
2018-04-11T11:12:22.125Z,32.38
2018-04-11T11:13:22.129Z,31.82
2018-04-11T11:14:22.113Z,31.92
2018-04-11T11:15:22.103Z,31.53
2018-04-11T11:16:22.106Z,30.00
2018-04-11T11:17:22.089Z,28.35
2018-04-11T11:18:22.081Z,30.67
2018-04-11T11:19:22.079Z,28.27
2018-04-11T11:20:22.065Z,28.75
2018-04-11T11:21:22.058Z,30.47
2018-04-11T11:22:22.051Z,31.15
2018-04-11T11:23:22.058Z,30.96
2018-04-11T11:24:22.033Z,30.86
2018-04-11T11:25:22.026Z,29.13
2018-04-11T11:26:22.016Z,27.03
2018-04-11T11:27:22.004Z,28.37
2018-04-11T11:28:22.003Z,28.75
2018-04-11T11:29:21.997Z,29.05
2018-04-11T11:30:21.992Z,30.58
2018-04-11T11:31:21.975Z,29.34
2018-04-11T11:32:21.963Z,29.91
2018-04-11T11:33:21.960Z,29.34
2018-04-11T11:34:21.958Z,30.11
2018-04-11T11:35:21.943Z,30.87
2018-04-11T11:36:21.934Z,27.31
2018-04-11T11:37:21.926Z,28.37
2018-04-11T11:38:21.928Z,30.57
2018-04-11T11:39:21.915Z,30.11
2018-04-11T11:40:21.912Z,29.53
2018-04-11T11:41:21.898Z,29.72
2018-04-11T11:42:21.887Z,28.46
2018-04-11T11:43:21.882Z,29.04
2018-04-11T11:44:21.876Z,29.13
2018-04-11T11:45:21.866Z,29.04
2018-04-11T11:46:21.863Z,31.24
2018-04-11T11:47:21.851Z,30.58
2018-04-11T11:48:21.851Z,29.63
2018-04-11T11:49:21.834Z,29.82
2018-04-11T11:50:21.836Z,29.53
2018-04-11T11:51:21.821Z,29.53
2018-04-11T11:52:21.815Z,32.71
2018-04-11T11:53:21.803Z,31.56
2018-04-11T11:54:21.802Z,29.83
2018-04-11T11:55:21.790Z,27.34
2018-04-11T11:56:21.790Z,28.30
2018-04-11T11:57:21.793Z,28.11
2018-04-11T11:58:21.772Z,27.44
2018-04-11T11:59:21.760Z,25.90
2018-04-11T12:00:21.758Z,27.53
2018-04-11T12:01:21.750Z,27.63
2018-04-11T12:02:21.739Z,29.55
2018-04-11T12:03:21.731Z,28.59
2018-04-11T12:04:21.729Z,27.44
2018-04-11T12:05:21.717Z,29.83
2018-04-11T12:06:21.707Z,29.83
2018-04-11T12:07:21.707Z,28.41
2018-04-11T12:08:21.693Z,27.63
2018-04-11T12:09:21.693Z,28.50
2018-04-11T12:10:21.685Z,29.47
2018-04-11T12:11:21.676Z,29.75
2018-04-11T12:12:21.672Z,29.96
2018-04-11T12:13:21.664Z,28.23
2018-04-11T12:14:21.652Z,27.56
2018-04-11T12:15:21.645Z,28.52
2018-04-11T12:16:21.641Z,27.27
2018-04-11T12:17:21.634Z,26.12
2018-04-11T12:18:21.625Z,25.82
2018-04-11T12:19:21.650Z,25.13
2018-04-11T12:20:21.611Z,25.90
2018-04-11T12:21:21.609Z,26.57
2018-04-11T12:22:21.599Z,28.68
2018-04-11T12:23:21.599Z,29.06
2018-04-11T12:24:21.580Z,28.38
2018-04-11T12:25:21.573Z,28.38
2018-04-11T12:26:21.578Z,27.23
2018-04-11T12:27:21.569Z,27.34
2018-04-11T12:28:21.561Z,27.23
2018-04-11T12:29:21.550Z,25.89
2018-04-11T12:30:21.546Z,26.65
2018-04-11T12:31:21.538Z,28.67
2018-04-11T12:32:21.528Z,30.87
2018-04-11T12:33:21.530Z,31.16
2018-04-11T12:34:21.511Z,28.19
2018-04-11T12:35:21.504Z,27.03
2018-04-11T12:36:21.508Z,28.27
2018-04-11T12:37:21.498Z,29.98
2018-04-11T12:38:21.486Z,29.88
2018-04-11T12:39:21.476Z,30.09
2018-04-11T12:40:21.472Z,30.08
2018-04-11T12:41:21.464Z,30.75
2018-04-11T12:42:21.457Z,31.42
2018-04-11T12:43:21.451Z,31.34
2018-04-11T12:44:21.463Z,29.69
2018-04-11T12:45:21.439Z,31.51
2018-04-11T12:46:21.433Z,32.09
2018-04-11T12:47:21.419Z,31.90
2018-04-11T12:48:21.411Z,31.04
2018-04-11T12:49:21.405Z,29.31
2018-04-11T12:50:21.418Z,29.60
2018-04-11T12:51:21.396Z,30.36
2018-04-11T12:52:21.378Z,30.54